createdAt,value
2023-04-15T00:01:08.876Z,0.90
2023-04-15T00:03:37.190Z,0.60
2023-04-15T00:06:04.843Z,0.30
2023-04-15T00:08:32.192Z,0.30
2023-04-15T00:11:03.376Z,0.40
2023-04-15T00:13:34.209Z,0.57
2023-04-15T00:16:02.489Z,0.60
2023-04-15T00:18:30.136Z,0.40
2023-04-15T00:20:57.673Z,0.47
2023-04-15T00:23:25.273Z,0.50
2023-04-15T00:25:52.668Z,0.60
2023-04-15T00:28:20.102Z,0.60
2023-04-15T00:30:47.555Z,0.57
2023-04-15T00:33:16.621Z,0.40
2023-04-15T00:35:44.009Z,0.50
2023-04-15T00:38:11.728Z,0.77
2023-04-15T00:40:39.081Z,0.57
2023-04-15T00:43:09.586Z,0.60
2023-04-15T00:45:37.519Z,0.37
2023-04-15T00:48:05.772Z,0.50
2023-04-15T00:50:33.981Z,0.40
2023-04-15T00:53:01.334Z,0.30
2023-04-15T00:55:28.875Z,0.50
2023-04-15T00:57:57.575Z,0.40
2023-04-15T01:00:24.988Z,0.40
2023-04-15T01:02:53.219Z,0.87
2023-04-15T01:05:20.903Z,0.40
2023-04-15T01:07:49.450Z,0.40
2023-04-15T01:10:16.868Z,0.50
2023-04-15T01:12:44.809Z,0.40
2023-04-15T01:15:12.341Z,0.50
2023-04-15T01:17:40.078Z,0.50
2023-04-15T01:20:10.224Z,0.47
2023-04-15T01:22:38.427Z,0.50
2023-04-15T01:25:08.457Z,0.50
2023-04-15T01:27:36.628Z,0.50
2023-04-15T01:30:05.566Z,0.43
2023-04-15T01:32:32.990Z,0.50
2023-04-15T01:35:00.560Z,0.30
2023-04-15T01:37:28.604Z,0.43
2023-04-15T01:39:57.472Z,0.30
2023-04-15T01:42:24.849Z,0.47
2023-04-15T01:44:52.231Z,0.60
2023-04-15T01:47:21.768Z,0.50
2023-04-15T01:49:49.264Z,0.37
2023-04-15T01:52:16.710Z,0.50
2023-04-15T01:54:44.030Z,0.57
2023-04-15T01:57:11.460Z,0.40
2023-04-15T01:59:38.846Z,0.50
2023-04-15T02:02:06.411Z,0.63
2023-04-15T02:04:34.431Z,0.50
2023-04-15T02:07:01.813Z,0.60
2023-04-15T02:09:29.394Z,0.47
2023-04-15T02:11:57.046Z,0.50
2023-04-15T02:14:24.492Z,0.30
2023-04-15T02:16:51.934Z,0.20
2023-04-15T02:19:19.326Z,0.70
2023-04-15T02:21:46.652Z,0.40
2023-04-15T02:24:14.032Z,0.40
2023-04-15T02:26:41.668Z,0.50
2023-04-15T02:29:09.060Z,0.40
2023-04-15T02:31:40.575Z,0.43
2023-04-15T02:34:08.420Z,0.50
2023-04-15T02:36:35.838Z,0.70
2023-04-15T02:39:04.419Z,0.50
2023-04-15T02:41:31.782Z,0.40
2023-04-15T02:43:59.214Z,0.30
2023-04-15T02:46:27.691Z,0.33
2023-04-15T02:48:55.155Z,0.60
2023-04-15T02:51:23.125Z,0.40
2023-04-15T02:53:51.174Z,0.40
2023-04-15T02:56:19.933Z,0.30
2023-04-15T02:58:50.688Z,0.30
2023-04-15T03:01:18.571Z,0.40
2023-04-15T03:03:49.253Z,0.40
2023-04-15T03:06:16.747Z,0.50
2023-04-15T03:08:44.205Z,0.60
2023-04-15T03:11:16.468Z,0.60
2023-04-15T03:13:43.977Z,0.40
2023-04-15T03:16:11.510Z,0.50
2023-04-15T03:18:39.133Z,0.47
2023-04-15T03:21:06.711Z,0.50
2023-04-15T03:23:34.155Z,0.43
2023-04-15T03:26:05.132Z,0.40
2023-04-15T03:28:32.916Z,0.50
2023-04-15T03:31:01.194Z,0.60
2023-04-15T03:33:28.601Z,0.43
2023-04-15T03:35:56.202Z,0.40
2023-04-15T03:38:23.647Z,0.40
2023-04-15T03:40:51.017Z,0.40
2023-04-15T03:43:18.365Z,0.57
2023-04-15T03:45:45.806Z,0.50
2023-04-15T03:48:17.910Z,0.50
2023-04-15T03:50:46.327Z,0.40
2023-04-15T03:53:13.728Z,0.33
2023-04-15T03:55:41.022Z,0.50
2023-04-15T03:58:09.644Z,0.30
2023-04-15T04:00:37.010Z,0.60
2023-04-15T04:03:04.729Z,0.50
2023-04-15T04:05:32.540Z,0.47
2023-04-15T04:07:59.807Z,0.40
2023-04-15T04:10:27.854Z,0.50
2023-04-15T04:12:55.180Z,0.13
2023-04-15T04:15:22.527Z,0.80
2023-04-15T04:17:49.971Z,0.53
2023-04-15T04:20:17.444Z,0.70
2023-04-15T04:22:44.886Z,0.43
2023-04-15T04:25:12.283Z,0.40
2023-04-15T04:27:39.852Z,0.40
2023-04-15T04:30:08.326Z,0.40
2023-04-15T04:32:35.899Z,0.53
2023-04-15T04:35:03.691Z,0.50
2023-04-15T04:37:31.127Z,0.43
2023-04-15T04:39:58.524Z,0.50
2023-04-15T04:42:26.161Z,0.40
2023-04-15T04:44:53.805Z,0.50
2023-04-15T04:47:21.517Z,0.67
2023-04-15T04:49:49.008Z,0.60
2023-04-15T04:52:16.323Z,0.60
2023-04-15T04:54:43.653Z,0.40
2023-04-15T04:57:11.002Z,0.50
2023-04-15T04:59:38.323Z,0.53
2023-04-15T05:02:05.853Z,0.30
2023-04-15T05:04:33.288Z,0.50
2023-04-15T05:07:00.962Z,0.50
2023-04-15T05:09:28.922Z,0.60
2023-04-15T05:11:59.544Z,0.67
2023-04-15T05:14:27.288Z,0.40
2023-04-15T05:16:54.561Z,0.47
2023-04-15T05:19:21.964Z,0.50
2023-04-15T05:21:49.322Z,0.50
2023-04-15T05:24:17.008Z,0.50
2023-04-15T05:26:44.397Z,0.60
2023-04-15T05:29:12.005Z,0.70
2023-04-15T05:31:39.562Z,1.10
2023-04-15T05:34:07.373Z,0.50
2023-04-15T05:36:34.931Z,0.50
2023-04-15T05:39:02.461Z,0.50
2023-04-15T05:41:30.208Z,0.80
2023-04-15T05:43:57.654Z,0.60
2023-04-15T05:46:25.035Z,0.50
2023-04-15T05:51:20.166Z,0.60
2023-04-15T05:53:47.568Z,0.50
2023-04-15T05:56:14.985Z,0.70
2023-04-15T05:58:42.454Z,0.90
2023-04-15T06:01:09.805Z,1.03
2023-04-15T06:03:37.411Z,1.13
2023-04-15T06:06:05.045Z,0.70
2023-04-15T06:08:32.605Z,0.70
2023-04-15T06:10:59.969Z,1.00
2023-04-15T06:13:27.420Z,1.03
2023-04-15T06:15:54.961Z,0.60
2023-04-15T06:18:22.525Z,0.87
2023-04-15T06:20:49.966Z,0.50
2023-04-15T06:23:17.330Z,1.03
2023-04-15T06:25:44.644Z,0.60
2023-04-15T06:28:12.127Z,0.77
2023-04-15T06:30:40.286Z,0.90
2023-04-15T06:33:07.801Z,0.60
2023-04-15T06:35:35.562Z,0.60
2023-04-15T06:38:02.977Z,0.70
2023-04-15T06:40:30.366Z,0.60
2023-04-15T06:42:57.721Z,0.70
2023-04-15T06:45:25.064Z,0.70
2023-04-15T06:47:52.398Z,0.73
2023-04-15T06:50:19.887Z,0.90
2023-04-15T06:52:47.245Z,0.73
2023-04-15T06:55:18.003Z,1.33
2023-04-15T06:57:45.487Z,0.80
2023-04-15T07:00:13.482Z,0.90
2023-04-15T07:02:41.325Z,1.20
2023-04-15T07:05:08.853Z,0.90
2023-04-15T07:07:36.919Z,0.90
2023-04-15T07:10:04.676Z,0.93
2023-04-15T07:12:32.089Z,1.00
2023-04-15T07:14:59.405Z,1.00
2023-04-15T07:17:27.296Z,0.80
2023-04-15T07:19:54.610Z,0.80
2023-04-15T07:22:22.083Z,0.80
2023-04-15T07:24:49.405Z,0.80
2023-04-15T07:27:19.673Z,0.80
2023-04-15T07:29:47.479Z,0.70
2023-04-15T07:32:14.885Z,0.50
2023-04-15T07:34:42.368Z,0.60
2023-04-15T07:37:09.818Z,1.00
2023-04-15T07:39:37.400Z,0.80
2023-04-15T07:42:04.927Z,0.97
2023-04-15T07:44:32.596Z,1.00
2023-04-15T07:46:59.943Z,0.77
2023-04-15T07:49:27.371Z,0.90
2023-04-15T07:51:55.149Z,0.87
2023-04-15T07:54:22.623Z,0.63
2023-04-15T07:56:49.884Z,0.80
2023-04-15T07:59:19.214Z,0.70
2023-04-15T08:01:46.813Z,1.30
2023-04-15T08:04:14.877Z,0.97
2023-04-15T08:06:42.476Z,0.83
2023-04-15T08:09:09.814Z,0.60
2023-04-15T08:11:37.680Z,0.70
2023-04-15T08:14:05.137Z,0.83
2023-04-15T08:16:32.816Z,1.20
2023-04-15T08:19:00.664Z,0.90
2023-04-15T08:21:30.945Z,1.30
2023-04-15T08:23:58.447Z,1.43
2023-04-15T08:26:26.523Z,1.70
2023-04-15T08:28:54.039Z,0.90
2023-04-15T08:31:22.115Z,0.80
2023-04-15T08:33:52.138Z,0.60
2023-04-15T08:36:19.647Z,0.80
2023-04-15T08:38:47.044Z,0.67
2023-04-15T08:41:25.519Z,1.20
2023-04-15T08:43:55.028Z,0.83
2023-04-15T08:46:22.877Z,1.23
2023-04-15T08:48:51.019Z,0.70
2023-04-15T08:51:23.890Z,0.63
2023-04-15T08:53:52.767Z,0.60
2023-04-15T08:56:20.414Z,0.93
2023-04-15T08:58:47.853Z,0.90
2023-04-15T09:01:15.550Z,0.90
2023-04-15T09:03:43.239Z,0.77
2023-04-15T09:06:11.009Z,0.90
2023-04-15T09:08:39.123Z,0.60
2023-04-15T09:11:06.687Z,1.03
2023-04-15T09:13:34.004Z,0.60
2023-04-15T09:16:06.364Z,0.70
2023-04-15T09:18:34.652Z,0.30
2023-04-15T09:21:09.131Z,0.60
2023-04-15T09:23:37.087Z,0.50
2023-04-15T09:26:04.790Z,0.50
2023-04-15T09:28:32.448Z,0.30
2023-04-15T09:31:01.256Z,0.30
2023-04-15T09:33:29.406Z,0.30
2023-04-15T09:35:58.174Z,0.47
2023-04-15T09:38:25.892Z,0.30
2023-04-15T09:40:53.472Z,0.30
2023-04-15T09:43:24.201Z,0.30
2023-04-15T09:45:52.914Z,0.20
2023-04-15T09:48:21.773Z,0.40
2023-04-15T09:50:49.684Z,0.40
2023-04-15T09:53:21.653Z,0.30
2023-04-15T09:55:59.170Z,0.60
2023-04-15T09:58:27.855Z,0.70
2023-04-15T10:00:57.035Z,0.60
2023-04-15T10:03:26.246Z,0.53
2023-04-15T10:05:55.834Z,0.60
2023-04-15T10:08:25.412Z,0.50
2023-04-15T10:10:53.099Z,0.73
2023-04-15T10:13:22.604Z,0.90
2023-04-15T10:15:52.053Z,0.90
2023-04-15T10:18:21.927Z,0.97
2023-04-15T10:20:50.026Z,1.00
2023-04-15T10:23:17.891Z,1.00
2023-04-15T10:25:46.327Z,0.77
2023-04-15T10:28:14.450Z,0.97
2023-04-15T10:30:42.012Z,0.90
2023-04-15T10:33:10.084Z,0.80
2023-04-15T10:35:37.766Z,0.83
2023-04-15T10:38:25.088Z,1.10
2023-04-15T10:40:52.765Z,1.17
2023-04-15T10:43:27.403Z,0.90
2023-04-15T10:45:54.897Z,0.70
2023-04-15T10:48:22.164Z,1.13
2023-04-15T10:50:58.891Z,0.97
2023-04-15T10:53:30.091Z,1.00
2023-04-15T10:55:58.444Z,1.40
2023-04-15T10:58:26.487Z,1.10
2023-04-15T11:00:54.566Z,0.70
2023-04-15T11:03:39.334Z,0.70
2023-04-15T11:06:07.615Z,0.70
2023-04-15T11:08:53.567Z,1.17
2023-04-15T11:11:23.122Z,1.00
2023-04-15T11:13:54.416Z,0.70
2023-04-15T11:16:23.084Z,0.70
2023-04-15T11:18:57.606Z,0.50
2023-04-15T11:21:28.293Z,0.50
2023-04-15T11:23:55.642Z,0.50
2023-04-15T11:26:27.377Z,0.57
2023-04-15T11:28:54.969Z,0.50
2023-04-15T11:31:24.241Z,0.67
2023-04-15T11:33:56.602Z,0.40
2023-04-15T11:36:28.169Z,0.53
2023-04-15T11:38:55.799Z,0.60
2023-04-15T11:41:23.707Z,0.70
2023-04-15T11:43:51.924Z,0.57
2023-04-15T11:46:19.388Z,0.60
2023-04-15T11:48:47.633Z,0.43
2023-04-15T11:51:15.365Z,0.40
2023-04-15T11:53:42.745Z,0.40
2023-04-15T11:56:18.598Z,0.40
2023-04-15T11:58:46.789Z,0.40
2023-04-15T12:01:14.370Z,0.40
2023-04-15T12:03:44.143Z,0.53
2023-04-15T12:06:22.014Z,0.63
2023-04-15T12:08:49.314Z,0.40
2023-04-15T12:11:17.441Z,0.43
2023-04-15T12:13:51.531Z,1.97
2023-04-15T12:16:22.522Z,0.57
2023-04-15T12:18:55.283Z,0.50
2023-04-15T12:21:23.794Z,0.40
2023-04-15T12:23:58.523Z,0.60
2023-04-15T12:26:30.525Z,0.90
2023-04-15T12:29:08.458Z,0.63
2023-04-15T12:31:39.373Z,0.60
2023-04-15T12:34:09.404Z,0.33
2023-04-15T12:36:37.451Z,0.30
2023-04-15T12:39:05.526Z,0.40
2023-04-15T12:41:33.410Z,0.20
2023-04-15T12:44:00.865Z,0.40
2023-04-15T12:46:28.596Z,0.20
2023-04-15T12:48:56.047Z,0.10
2023-04-15T12:51:25.485Z,0.20
2023-04-15T12:53:52.896Z,0.30
2023-04-15T12:56:20.294Z,0.30
2023-04-15T12:58:47.649Z,0.20
2023-04-15T13:01:15.052Z,0.10
2023-04-15T13:03:42.808Z,0.10
2023-04-15T13:06:10.325Z,0.10
2023-04-15T13:08:42.543Z,0.20
2023-04-15T13:11:12.765Z,0.10
2023-04-15T13:13:40.127Z,0.10
2023-04-15T13:16:08.284Z,0.10
2023-04-15T13:18:35.925Z,0.17
2023-04-15T13:21:05.341Z,0.10
2023-04-15T13:23:32.850Z,0.10
2023-04-15T13:26:00.557Z,0.10
2023-04-15T13:28:27.926Z,0.10
2023-04-15T13:30:55.484Z,0.07
2023-04-15T13:33:22.849Z,0.10
2023-04-15T13:35:50.604Z,0.03
2023-04-15T13:38:18.050Z,0.10
2023-04-15T13:40:45.606Z,0.10
2023-04-15T13:43:12.983Z,0.10
2023-04-15T13:45:40.540Z,0.00
2023-04-15T13:48:08.046Z,0.00
2023-04-15T13:50:35.418Z,0.10
2023-04-15T13:53:03.083Z,0.10
2023-04-15T13:55:30.611Z,0.10
2023-04-15T13:57:58.211Z,0.10
2023-04-15T14:00:25.643Z,0.20
2023-04-15T14:02:53.314Z,0.10
2023-04-15T14:05:20.842Z,0.10
2023-04-15T14:07:48.284Z,0.10
2023-04-15T14:10:15.732Z,0.10
2023-04-15T14:12:43.083Z,0.10
2023-04-15T14:15:10.646Z,0.03
2023-04-15T14:17:38.813Z,0.00
2023-04-15T14:20:08.246Z,0.10
2023-04-15T14:22:35.719Z,0.00
2023-04-15T14:25:03.332Z,0.10
2023-04-15T14:27:30.684Z,0.00
2023-04-15T14:29:58.883Z,0.00
2023-04-15T14:32:27.384Z,0.00
2023-04-15T14:34:54.726Z,0.10
2023-04-15T14:37:22.040Z,0.10
2023-04-15T14:39:49.644Z,0.10
2023-04-15T14:42:17.106Z,0.10
2023-04-15T14:44:44.972Z,0.10
2023-04-15T14:47:12.363Z,0.10
2023-04-15T14:49:39.885Z,0.10
2023-04-15T14:52:07.284Z,0.10
2023-04-15T14:54:34.681Z,0.60
2023-04-15T14:57:02.370Z,0.10
2023-04-15T14:59:32.768Z,0.00
2023-04-15T15:02:00.287Z,0.10
2023-04-15T15:04:28.004Z,0.10
2023-04-15T15:06:55.891Z,0.03
2023-04-15T15:09:24.046Z,0.00
2023-04-15T15:11:51.488Z,0.10
2023-04-15T15:14:21.125Z,0.00
2023-04-15T15:16:48.688Z,0.10
2023-04-15T15:19:16.163Z,0.10
2023-04-15T15:21:43.577Z,0.10
2023-04-15T15:24:11.009Z,0.10
2023-04-15T15:26:38.508Z,0.10
2023-04-15T15:29:06.096Z,0.10
2023-04-15T15:31:35.468Z,0.00
2023-04-15T15:34:03.261Z,0.10
2023-04-15T15:36:34.206Z,0.10
2023-04-15T15:39:01.746Z,0.10
2023-04-15T15:41:29.334Z,0.10
2023-04-15T15:43:56.890Z,0.10
2023-04-15T15:46:24.451Z,0.00
2023-04-15T15:48:51.866Z,0.07
2023-04-15T15:51:20.125Z,0.00
2023-04-15T15:53:47.649Z,0.00
2023-04-15T15:56:15.007Z,0.20
2023-04-15T15:58:45.074Z,0.00
2023-04-15T16:01:12.747Z,0.10
2023-04-15T16:03:41.069Z,0.00
2023-04-15T16:06:08.604Z,0.10
2023-04-15T16:08:36.043Z,0.50
2023-04-15T16:11:03.411Z,0.10
2023-04-15T16:13:30.877Z,0.20
2023-04-15T16:15:58.320Z,0.10
2023-04-15T16:18:25.721Z,0.20
2023-04-15T16:20:53.097Z,0.10
2023-04-15T16:23:20.728Z,0.10
2023-04-15T16:25:51.969Z,0.27
2023-04-15T16:28:26.394Z,0.10
2023-04-15T16:30:54.761Z,0.13
2023-04-15T16:33:22.207Z,0.10
2023-04-15T16:35:49.643Z,0.00
2023-04-15T16:38:16.929Z,0.10
2023-04-15T16:40:44.290Z,0.20
2023-04-15T16:43:11.761Z,0.10
2023-04-15T16:45:39.569Z,0.10
2023-04-15T16:48:07.101Z,0.10
2023-04-15T16:50:34.500Z,0.20
2023-04-15T16:53:01.982Z,0.20
2023-04-15T16:55:31.963Z,0.10
2023-04-15T16:58:03.325Z,0.10
2023-04-15T17:00:32.410Z,0.30
2023-04-15T17:03:00.308Z,0.20
2023-04-15T17:05:28.141Z,0.10
2023-04-15T17:07:55.932Z,0.10
2023-04-15T17:10:23.762Z,0.10
2023-04-15T17:12:52.326Z,0.10
2023-04-15T17:15:20.459Z,0.10
2023-04-15T17:17:47.981Z,0.10
2023-04-15T17:20:17.520Z,0.10
2023-04-15T17:22:45.157Z,0.20
2023-04-15T17:25:12.563Z,0.10
2023-04-15T17:27:39.989Z,0.10
2023-04-15T17:30:08.363Z,0.20
2023-04-15T17:32:36.091Z,0.10
2023-04-15T17:35:06.734Z,0.10
2023-04-15T17:37:34.862Z,0.30
2023-04-15T17:40:02.735Z,0.10
2023-04-15T17:42:30.089Z,0.20
2023-04-15T17:44:57.484Z,0.20
2023-04-15T17:47:24.890Z,0.10
2023-04-15T17:49:52.268Z,0.10
2023-04-15T17:52:19.565Z,0.10
2023-04-15T17:54:47.245Z,0.30
2023-04-15T17:57:14.778Z,0.10
2023-04-15T17:59:44.239Z,0.20
2023-04-15T18:02:11.884Z,0.20
2023-04-15T18:04:40.221Z,0.20
2023-04-15T18:07:07.885Z,0.20
2023-04-15T18:09:35.324Z,0.20
2023-04-15T18:12:04.526Z,0.30
2023-04-15T18:14:34.763Z,0.20
2023-04-15T18:17:05.759Z,0.20
2023-04-15T18:19:35.856Z,0.10
2023-04-15T18:22:04.213Z,0.10
2023-04-15T18:24:31.804Z,0.20
2023-04-15T18:26:59.354Z,0.30
2023-04-15T18:29:26.973Z,0.30
2023-04-15T18:31:54.816Z,0.23
2023-04-15T18:34:22.457Z,0.10
2023-04-15T18:36:49.896Z,0.20
2023-04-15T18:39:17.212Z,0.30
2023-04-15T18:41:44.690Z,0.40
2023-04-15T18:44:12.037Z,0.40
2023-04-15T18:46:39.672Z,0.27
2023-04-15T18:49:07.350Z,0.30
2023-04-15T18:51:38.090Z,0.23
2023-04-15T18:54:05.806Z,0.30
2023-04-15T18:56:33.368Z,0.20
2023-04-15T18:59:23.010Z,0.30
2023-04-15T19:01:47.992Z,0.30
2023-04-15T19:04:15.810Z,0.20
2023-04-15T19:06:43.530Z,0.20
2023-04-15T19:09:10.928Z,0.30
2023-04-15T19:11:39.245Z,0.20
2023-04-15T19:14:06.891Z,0.30
2023-04-15T19:16:34.324Z,0.20
2023-04-15T19:19:01.832Z,0.10
2023-04-15T19:21:30.809Z,0.20
2023-04-15T19:23:58.485Z,0.00
2023-04-15T19:26:25.891Z,0.17
2023-04-15T19:28:53.999Z,0.37
2023-04-15T19:31:21.463Z,0.10
2023-04-15T19:33:48.965Z,0.30
2023-04-15T19:36:18.209Z,0.20
2023-04-15T19:38:48.324Z,0.10
2023-04-15T19:41:16.220Z,0.20
2023-04-15T19:43:43.569Z,0.20
2023-04-15T19:46:13.463Z,0.20
2023-04-15T19:48:41.013Z,0.20
2023-04-15T19:51:08.365Z,0.30
2023-04-15T19:53:35.818Z,0.10
2023-04-15T19:56:03.151Z,0.10
2023-04-15T19:58:32.501Z,0.10
2023-04-15T20:01:01.451Z,0.10
2023-04-15T20:03:29.007Z,0.50
2023-04-15T20:05:56.666Z,0.40
2023-04-15T20:08:24.002Z,0.30
2023-04-15T20:10:51.288Z,0.20
2023-04-15T20:13:18.646Z,0.20
2023-04-15T20:15:46.153Z,0.10
2023-04-15T20:18:13.684Z,0.30
2023-04-15T20:20:41.206Z,0.30
2023-04-15T20:23:08.654Z,0.10
2023-04-15T20:25:36.642Z,0.20
2023-04-15T20:28:04.048Z,0.20
2023-04-15T20:30:31.445Z,0.10
2023-04-15T20:32:59.806Z,0.20
2023-04-15T20:35:31.009Z,0.40
2023-04-15T20:37:58.615Z,0.40
2023-04-15T20:40:26.363Z,0.30
2023-04-15T20:42:53.893Z,0.27
2023-04-15T20:45:21.401Z,0.20
2023-04-15T20:47:49.112Z,0.37
2023-04-15T20:50:16.493Z,0.20
2023-04-15T20:52:43.928Z,0.30
2023-04-15T20:55:11.417Z,0.43
2023-04-15T20:57:38.806Z,0.20
2023-04-15T21:00:06.848Z,0.30
2023-04-15T21:02:34.465Z,0.33
2023-04-15T21:05:02.103Z,0.40
2023-04-15T21:07:29.534Z,0.40
2023-04-15T21:09:56.923Z,0.30
2023-04-15T21:12:24.455Z,0.23
2023-04-15T21:14:51.809Z,0.30
2023-04-15T21:17:19.336Z,0.20
2023-04-15T21:19:46.853Z,0.30
2023-04-15T21:22:14.131Z,0.20
2023-04-15T21:24:41.535Z,0.40
2023-04-15T21:27:08.969Z,0.73
2023-04-15T21:29:36.325Z,0.50
2023-04-15T21:32:03.776Z,0.43
2023-04-15T21:34:31.254Z,0.57
2023-04-15T21:36:58.610Z,0.40
2023-04-15T21:39:25.965Z,0.50
2023-04-15T21:41:53.352Z,0.20
2023-04-15T21:44:20.843Z,0.43
2023-04-15T21:46:48.339Z,0.30
2023-04-15T21:49:16.130Z,0.40
2023-04-15T21:51:43.442Z,0.30
2023-04-15T21:54:10.967Z,0.40
2023-04-15T21:56:38.616Z,0.43
2023-04-15T21:59:06.798Z,0.30
2023-04-15T22:01:34.494Z,1.00
2023-04-15T22:04:02.090Z,0.50
2023-04-15T22:06:29.500Z,0.50
2023-04-15T22:08:57.922Z,0.30
2023-04-15T22:11:30.895Z,0.40
2023-04-15T22:13:59.245Z,0.40
2023-04-15T22:16:27.475Z,0.40
2023-04-15T22:18:55.625Z,0.43
2023-04-15T22:21:23.254Z,0.60
2023-04-15T22:23:50.896Z,0.40
2023-04-15T22:26:18.400Z,0.40
2023-04-15T22:28:46.084Z,0.50
2023-04-15T22:31:14.954Z,0.50
2023-04-15T22:33:42.528Z,0.53
2023-04-15T22:36:10.012Z,0.47
2023-04-15T22:38:37.497Z,0.60
2023-04-15T22:41:04.925Z,0.30
2023-04-15T22:43:32.366Z,0.40
2023-04-15T22:46:01.204Z,0.47
2023-04-15T22:48:28.618Z,0.40
2023-04-15T22:50:56.122Z,0.50
2023-04-15T22:53:23.570Z,0.60
2023-04-15T22:55:51.940Z,0.40
2023-04-15T22:58:19.241Z,0.40
2023-04-15T23:00:46.561Z,0.50
2023-04-15T23:03:14.098Z,0.30
2023-04-15T23:05:42.463Z,0.60
2023-04-15T23:08:09.811Z,0.40
2023-04-15T23:10:40.035Z,0.50
2023-04-15T23:13:07.563Z,0.50
2023-04-15T23:15:34.850Z,0.50
2023-04-15T23:18:02.611Z,0.40
2023-04-15T23:20:30.003Z,0.60
2023-04-15T23:22:57.365Z,0.50
2023-04-15T23:25:24.924Z,0.50
2023-04-15T23:27:52.360Z,0.60
2023-04-15T23:30:19.806Z,0.60
2023-04-15T23:32:47.253Z,0.43
2023-04-15T23:35:14.612Z,0.50
2023-04-15T23:37:42.007Z,0.73
2023-04-15T23:40:09.788Z,0.80
2023-04-15T23:42:37.213Z,0.67
2023-04-15T23:45:04.662Z,0.67
2023-04-15T23:47:32.061Z,0.80
2023-04-15T23:50:02.843Z,0.70
2023-04-15T23:52:30.282Z,0.60
2023-04-15T23:54:57.566Z,0.60
2023-04-15T23:57:24.852Z,0.73
2023-04-15T23:59:52.201Z,0.60
